Terminal Aerodrome Forecast
Issued by NWS

Home | Current Version | Previous Version | Graphics & Text | Print | Product List | Glossary On
Versions: 1 2 3 4 5 6 7 8 9 10 11 12 13 14 15 16 17 18 19
000
FTUS43 KIWX 160500
TAFSBN
TAF
KSBN 160527Z 1606/1706 16008KT 5SM BR OVC006
     FM160900 19006KT 2SM -RA BR OVC004
     FM161300 24007KT 1SM -RA BR VV003
     FM161800 27012G20KT 4SM BR VCSH OVC006
     FM162200 29014G23KT P6SM OVC008=

USA.gov is the U.S. government's official web portal to all federal, state and local government web resources and services.